sensor_id;sensor_type;location;lat;lon;timestamp;temperature;humidity
45343;DHT22;31077;50.872;4.352;2023-02-14T00:01:47;24.70;37.60
45343;DHT22;31077;50.872;4.352;2023-02-14T00:04:14;24.60;37.40
45343;DHT22;31077;50.872;4.352;2023-02-14T00:06:40;24.70;37.40
45343;DHT22;31077;50.872;4.352;2023-02-14T00:09:14;24.60;37.30
45343;DHT22;31077;50.872;4.352;2023-02-14T00:11:40;23.60;36.70
45343;DHT22;31077;50.872;4.352;2023-02-14T00:14:07;24.70;37.30
45343;DHT22;31077;50.872;4.352;2023-02-14T00:16:51;24.60;37.00
45343;DHT22;31077;50.872;4.352;2023-02-14T00:19:18;24.70;37.10
45343;DHT22;31077;50.872;4.352;2023-02-14T00:21:46;24.60;37.00
45343;DHT22;31077;50.872;4.352;2023-02-14T00:24:17;23.50;36.30
45343;DHT22;31077;50.872;4.352;2023-02-14T00:26:44;23.50;36.20
45343;DHT22;31077;50.872;4.352;2023-02-14T00:29:19;24.60;36.70
45343;DHT22;31077;50.872;4.352;2023-02-14T00:31:45;24.70;36.70
45343;DHT22;31077;50.872;4.352;2023-02-14T00:34:11;24.70;36.60
45343;DHT22;31077;50.872;4.352;2023-02-14T00:36:38;24.70;36.50
45343;DHT22;31077;50.872;4.352;2023-02-14T00:39:06;24.50;36.30
45343;DHT22;31077;50.872;4.352;2023-02-14T00:41:32;24.70;36.30
45343;DHT22;31077;50.872;4.352;2023-02-14T00:43:59;25.20;36.60
45343;DHT22;31077;50.872;4.352;2023-02-14T00:46:25;24.60;36.10
45343;DHT22;31077;50.872;4.352;2023-02-14T00:48:51;24.60;36.10
45343;DHT22;31077;50.872;4.352;2023-02-14T00:51:18;24.60;36.00
45343;DHT22;31077;50.872;4.352;2023-02-14T00:53:45;24.50;36.00
45343;DHT22;31077;50.872;4.352;2023-02-14T00:56:11;24.70;36.00
45343;DHT22;31077;50.872;4.352;2023-02-14T00:58:38;24.60;36.00
45343;DHT22;31077;50.872;4.352;2023-02-14T01:01:04;24.60;35.90
45343;DHT22;31077;50.872;4.352;2023-02-14T01:03:30;24.60;35.90
45343;DHT22;31077;50.872;4.352;2023-02-14T01:05:56;23.70;35.30
45343;DHT22;31077;50.872;4.352;2023-02-14T01:08:22;24.70;35.80
45343;DHT22;31077;50.872;4.352;2023-02-14T01:10:48;24.50;35.70
45343;DHT22;31077;50.872;4.352;2023-02-14T01:13:15;24.60;35.80
45343;DHT22;31077;50.872;4.352;2023-02-14T01:15:44;24.50;35.70
45343;DHT22;31077;50.872;4.352;2023-02-14T01:18:10;24.70;35.70
45343;DHT22;31077;50.872;4.352;2023-02-14T01:20:37;24.70;35.70
45343;DHT22;31077;50.872;4.352;2023-02-14T01:23:03;24.50;35.50
45343;DHT22;31077;50.872;4.352;2023-02-14T01:25:29;24.70;35.50
45343;DHT22;31077;50.872;4.352;2023-02-14T01:27:56;24.60;35.40
45343;DHT22;31077;50.872;4.352;2023-02-14T01:30:22;24.50;35.40
45343;DHT22;31077;50.872;4.352;2023-02-14T01:32:48;24.50;35.30
45343;DHT22;31077;50.872;4.352;2023-02-14T01:35:14;24.50;35.20
45343;DHT22;31077;50.872;4.352;2023-02-14T01:37:40;24.50;35.20
45343;DHT22;31077;50.872;4.352;2023-02-14T01:40:08;24.50;35.20
45343;DHT22;31077;50.872;4.352;2023-02-14T01:42:35;24.50;35.20
45343;DHT22;31077;50.872;4.352;2023-02-14T01:45:04;24.50;35.20
45343;DHT22;31077;50.872;4.352;2023-02-14T01:47:33;24.70;35.30
45343;DHT22;31077;50.872;4.352;2023-02-14T01:50:09;25.10;35.50
45343;DHT22;31077;50.872;4.352;2023-02-14T01:52:37;24.50;35.20
45343;DHT22;31077;50.872;4.352;2023-02-14T01:55:10;24.60;35.30
45343;DHT22;31077;50.872;4.352;2023-02-14T02:00:33;24.50;35.10
45343;DHT22;31077;50.872;4.352;2023-02-14T02:03:19;24.50;35.10
45343;DHT22;31077;50.872;4.352;2023-02-14T02:05:53;24.50;35.10
45343;DHT22;31077;50.872;4.352;2023-02-14T02:08:20;25.10;35.40
45343;DHT22;31077;50.872;4.352;2023-02-14T02:10:46;24.50;35.00
45343;DHT22;31077;50.872;4.352;2023-02-14T02:13:16;24.40;34.90
45343;DHT22;31077;50.872;4.352;2023-02-14T02:16:06;24.50;34.90
45343;DHT22;31077;50.872;4.352;2023-02-14T02:24:22;24.40;34.80
45343;DHT22;31077;50.872;4.352;2023-02-14T02:30:12;25.50;35.50
45343;DHT22;31077;50.872;4.352;2023-02-14T02:38:59;24.40;34.80
45343;DHT22;31077;50.872;4.352;2023-02-14T02:41:33;24.40;34.80
45343;DHT22;31077;50.872;4.352;2023-02-14T02:44:18;24.40;34.80
45343;DHT22;31077;50.872;4.352;2023-02-14T02:52:41;24.50;34.80
45343;DHT22;31077;50.872;4.352;2023-02-14T02:55:43;25.00;35.10
45343;DHT22;31077;50.872;4.352;2023-02-14T02:58:41;24.30;34.70
45343;DHT22;31077;50.872;4.352;2023-02-14T03:01:11;24.40;34.70
45343;DHT22;31077;50.872;4.352;2023-02-14T03:03:40;24.50;34.70
45343;DHT22;31077;50.872;4.352;2023-02-14T03:06:32;24.40;34.60
45343;DHT22;31077;50.872;4.352;2023-02-14T03:12:07;24.50;34.50
45343;DHT22;31077;50.872;4.352;2023-02-14T03:17:22;24.30;34.40
45343;DHT22;31077;50.872;4.352;2023-02-14T03:20:01;24.30;34.30
45343;DHT22;31077;50.872;4.352;2023-02-14T03:22:49;24.40;34.30
45343;DHT22;31077;50.872;4.352;2023-02-14T03:28:29;24.50;34.30
45343;DHT22;31077;50.872;4.352;2023-02-14T03:33:57;24.40;34.20
45343;DHT22;31077;50.872;4.352;2023-02-14T03:36:49;24.50;34.20
45343;DHT22;31077;50.872;4.352;2023-02-14T03:42:15;24.30;34.10
45343;DHT22;31077;50.872;4.352;2023-02-14T03:44:44;24.20;34.00
45343;DHT22;31077;50.872;4.352;2023-02-14T03:47:24;24.30;34.10
45343;DHT22;31077;50.872;4.352;2023-02-14T03:50:03;24.40;34.10
45343;DHT22;31077;50.872;4.352;2023-02-14T03:52:32;24.30;34.00
45343;DHT22;31077;50.872;4.352;2023-02-14T03:55:00;24.30;34.00
45343;DHT22;31077;50.872;4.352;2023-02-14T03:58:18;24.30;33.90
45343;DHT22;31077;50.872;4.352;2023-02-14T04:00:24;24.40;34.00
45343;DHT22;31077;50.872;4.352;2023-02-14T04:02:54;24.30;33.90
45343;DHT22;31077;50.872;4.352;2023-02-14T04:05:25;24.30;33.80
45343;DHT22;31077;50.872;4.352;2023-02-14T04:07:54;24.30;33.80
45343;DHT22;31077;50.872;4.352;2023-02-14T04:10:20;24.30;33.70
45343;DHT22;31077;50.872;4.352;2023-02-14T04:12:46;24.40;33.80
45343;DHT22;31077;50.872;4.352;2023-02-14T04:15:13;24.40;33.70
45343;DHT22;31077;50.872;4.352;2023-02-14T04:17:39;24.30;33.60
45343;DHT22;31077;50.872;4.352;2023-02-14T04:20:24;24.50;33.70
45343;DHT22;31077;50.872;4.352;2023-02-14T04:22:50;24.50;33.70
45343;DHT22;31077;50.872;4.352;2023-02-14T04:25:17;24.30;33.50
45343;DHT22;31077;50.872;4.352;2023-02-14T04:27:43;23.00;32.80
45343;DHT22;31077;50.872;4.352;2023-02-14T04:30:10;24.30;33.50
45343;DHT22;31077;50.872;4.352;2023-02-14T04:32:37;24.30;33.50
45343;DHT22;31077;50.872;4.352;2023-02-14T04:35:04;24.40;33.50
45343;DHT22;31077;50.872;4.352;2023-02-14T04:37:30;24.50;33.60
45343;DHT22;31077;50.872;4.352;2023-02-14T04:39:55;24.30;33.40
45343;DHT22;31077;50.872;4.352;2023-02-14T04:43:47;24.40;33.10
45343;DHT22;31077;50.872;4.352;2023-02-14T04:46:13;23.00;36.50
45343;DHT22;31077;50.872;4.352;2023-02-14T04:48:39;24.00;38.00
45343;DHT22;31077;50.872;4.352;2023-02-14T04:52:49;23.80;37.80
45343;DHT22;31077;50.872;4.352;2023-02-14T04:55:14;23.70;35.70
45343;DHT22;31077;50.872;4.352;2023-02-14T04:57:40;22.10;34.30
45343;DHT22;31077;50.872;4.352;2023-02-14T05:00:07;23.90;35.00
45343;DHT22;31077;50.872;4.352;2023-02-14T05:02:33;23.80;34.70
45343;DHT22;31077;50.872;4.352;2023-02-14T05:04:58;22.60;33.80
45343;DHT22;31077;50.872;4.352;2023-02-14T05:07:24;23.90;34.20
45343;DHT22;31077;50.872;4.352;2023-02-14T05:09:50;23.90;34.10
45343;DHT22;31077;50.872;4.352;2023-02-14T05:12:16;23.90;34.00
45343;DHT22;31077;50.872;4.352;2023-02-14T05:14:42;24.10;33.90
45343;DHT22;31077;50.872;4.352;2023-02-14T05:17:07;24.00;33.80
45343;DHT22;31077;50.872;4.352;2023-02-14T05:19:33;24.10;33.70
45343;DHT22;31077;50.872;4.352;2023-02-14T05:21:59;24.10;33.70
45343;DHT22;31077;50.872;4.352;2023-02-14T05:24:25;24.10;33.60
45343;DHT22;31077;50.872;4.352;2023-02-14T05:26:50;24.10;33.60
45343;DHT22;31077;50.872;4.352;2023-02-14T05:29:16;24.10;33.40
45343;DHT22;31077;50.872;4.352;2023-02-14T05:31:42;24.10;33.40
45343;DHT22;31077;50.872;4.352;2023-02-14T05:34:08;24.20;33.40
45343;DHT22;31077;50.872;4.352;2023-02-14T05:36:33;24.10;33.40
45343;DHT22;31077;50.872;4.352;2023-02-14T05:38:59;24.20;33.40
45343;DHT22;31077;50.872;4.352;2023-02-14T05:41:25;24.20;33.40
45343;DHT22;31077;50.872;4.352;2023-02-14T05:43:51;24.10;33.30
45343;DHT22;31077;50.872;4.352;2023-02-14T05:46:16;24.30;33.30
45343;DHT22;31077;50.872;4.352;2023-02-14T05:48:42;24.10;33.20
45343;DHT22;31077;50.872;4.352;2023-02-14T05:51:09;24.10;33.20
45343;DHT22;31077;50.872;4.352;2023-02-14T05:53:36;24.20;33.30
45343;DHT22;31077;50.872;4.352;2023-02-14T05:56:02;24.10;33.10
45343;DHT22;31077;50.872;4.352;2023-02-14T05:58:28;24.10;33.10
45343;DHT22;31077;50.872;4.352;2023-02-14T06:00:56;24.20;33.10
45343;DHT22;31077;50.872;4.352;2023-02-14T06:03:22;24.20;33.10
45343;DHT22;31077;50.872;4.352;2023-02-14T06:05:48;24.20;33.00
45343;DHT22;31077;50.872;4.352;2023-02-14T06:08:13;22.90;32.30
45343;DHT22;31077;50.872;4.352;2023-02-14T06:10:39;24.20;33.00
45343;DHT22;31077;50.872;4.352;2023-02-14T06:13:05;23.00;32.30
45343;DHT22;31077;50.872;4.352;2023-02-14T06:15:37;24.20;32.90
45343;DHT22;31077;50.872;4.352;2023-02-14T06:18:03;24.20;32.90
45343;DHT22;31077;50.872;4.352;2023-02-14T06:20:30;24.20;32.90
45343;DHT22;31077;50.872;4.352;2023-02-14T06:22:55;24.20;32.90
45343;DHT22;31077;50.872;4.352;2023-02-14T06:25:22;24.20;32.80
45343;DHT22;31077;50.872;4.352;2023-02-14T06:27:48;24.20;32.90
45343;DHT22;31077;50.872;4.352;2023-02-14T06:30:14;24.20;32.80
45343;DHT22;31077;50.872;4.352;2023-02-14T06:32:40;24.20;32.90
45343;DHT22;31077;50.872;4.352;2023-02-14T06:35:06;24.20;32.80
45343;DHT22;31077;50.872;4.352;2023-02-14T06:37:32;24.20;32.90
45343;DHT22;31077;50.872;4.352;2023-02-14T06:39:58;24.10;32.80
45343;DHT22;31077;50.872;4.352;2023-02-14T06:42:24;24.30;32.90
45343;DHT22;31077;50.872;4.352;2023-02-14T06:44:50;24.20;32.80
45343;DHT22;31077;50.872;4.352;2023-02-14T06:47:16;24.10;32.70
45343;DHT22;31077;50.872;4.352;2023-02-14T06:49:41;24.20;32.80
45343;DHT22;31077;50.872;4.352;2023-02-14T06:52:07;24.10;32.70
45343;DHT22;31077;50.872;4.352;2023-02-14T06:54:33;24.30;32.80
45343;DHT22;31077;50.872;4.352;2023-02-14T06:56:59;23.90;32.60
45343;DHT22;31077;50.872;4.352;2023-02-14T06:59:25;24.20;32.70
45343;DHT22;31077;50.872;4.352;2023-02-14T07:01:50;24.10;32.50
45343;DHT22;31077;50.872;4.352;2023-02-14T07:04:16;24.10;32.60
45343;DHT22;31077;50.872;4.352;2023-02-14T07:06:44;24.20;32.60
45343;DHT22;31077;50.872;4.352;2023-02-14T07:09:10;24.30;32.60
45343;DHT22;31077;50.872;4.352;2023-02-14T07:11:36;24.20;32.60
45343;DHT22;31077;50.872;4.352;2023-02-14T07:14:02;24.20;32.70
45343;DHT22;31077;50.872;4.352;2023-02-14T07:16:28;23.60;32.30
45343;DHT22;31077;50.872;4.352;2023-02-14T07:18:54;24.10;32.50
45343;DHT22;31077;50.872;4.352;2023-02-14T07:21:19;24.20;32.60
45343;DHT22;31077;50.872;4.352;2023-02-14T07:23:45;24.20;32.60
45343;DHT22;31077;50.872;4.352;2023-02-14T07:26:12;24.10;32.60
45343;DHT22;31077;50.872;4.352;2023-02-14T07:28:43;24.10;32.50
45343;DHT22;31077;50.872;4.352;2023-02-14T07:31:10;24.20;32.60
45343;DHT22;31077;50.872;4.352;2023-02-14T07:33:36;24.10;32.50
45343;DHT22;31077;50.872;4.352;2023-02-14T07:36:08;24.20;32.60
45343;DHT22;31077;50.872;4.352;2023-02-14T07:38:34;24.20;32.60
45343;DHT22;31077;50.872;4.352;2023-02-14T07:41:00;24.10;32.50
45343;DHT22;31077;50.872;4.352;2023-02-14T07:43:26;24.10;32.60
45343;DHT22;31077;50.872;4.352;2023-02-14T07:45:52;24.10;32.60
45343;DHT22;31077;50.872;4.352;2023-02-14T07:48:18;23.70;32.40
45343;DHT22;31077;50.872;4.352;2023-02-14T07:50:44;24.10;32.60
45343;DHT22;31077;50.872;4.352;2023-02-14T07:53:10;23.30;32.20
45343;DHT22;31077;50.872;4.352;2023-02-14T07:55:36;24.20;32.60
45343;DHT22;31077;50.872;4.352;2023-02-14T07:58:02;24.20;32.60
45343;DHT22;31077;50.872;4.352;2023-02-14T08:00:28;24.10;32.50
45343;DHT22;31077;50.872;4.352;2023-02-14T08:02:53;24.20;32.50
45343;DHT22;31077;50.872;4.352;2023-02-14T08:05:21;24.20;32.50
45343;DHT22;31077;50.872;4.352;2023-02-14T08:07:47;24.10;32.40
45343;DHT22;31077;50.872;4.352;2023-02-14T08:10:13;24.20;32.40
45343;DHT22;31077;50.872;4.352;2023-02-14T08:12:39;23.10;31.90
45343;DHT22;31077;50.872;4.352;2023-02-14T08:15:28;24.20;32.50
45343;DHT22;31077;50.872;4.352;2023-02-14T08:18:13;24.20;32.60
45343;DHT22;31077;50.872;4.352;2023-02-14T08:20:39;24.20;32.50
45343;DHT22;31077;50.872;4.352;2023-02-14T08:23:05;24.10;32.50
45343;DHT22;31077;50.872;4.352;2023-02-14T08:25:31;24.20;32.50
45343;DHT22;31077;50.872;4.352;2023-02-14T08:27:57;24.20;32.50
45343;DHT22;31077;50.872;4.352;2023-02-14T08:30:23;24.20;32.50
45343;DHT22;31077;50.872;4.352;2023-02-14T08:32:49;22.80;31.90
45343;DHT22;31077;50.872;4.352;2023-02-14T08:35:14;23.20;32.10
45343;DHT22;31077;50.872;4.352;2023-02-14T08:37:40;24.10;32.50
45343;DHT22;31077;50.872;4.352;2023-02-14T08:40:06;24.20;32.60
45343;DHT22;31077;50.872;4.352;2023-02-14T08:42:32;24.20;32.60
45343;DHT22;31077;50.872;4.352;2023-02-14T08:44:58;24.10;32.50
45343;DHT22;31077;50.872;4.352;2023-02-14T08:47:24;24.20;32.60
45343;DHT22;31077;50.872;4.352;2023-02-14T08:49:50;24.30;32.60
45343;DHT22;31077;50.872;4.352;2023-02-14T08:52:16;24.20;32.60
45343;DHT22;31077;50.872;4.352;2023-02-14T08:54:41;24.30;32.60
45343;DHT22;31077;50.872;4.352;2023-02-14T08:57:07;24.20;32.50
45343;DHT22;31077;50.872;4.352;2023-02-14T08:59:33;24.20;32.70
45343;DHT22;31077;50.872;4.352;2023-02-14T09:01:59;24.20;32.60
45343;DHT22;31077;50.872;4.352;2023-02-14T09:04:25;23.30;32.10
45343;DHT22;31077;50.872;4.352;2023-02-14T09:06:51;24.20;32.60
45343;DHT22;31077;50.872;4.352;2023-02-14T09:09:16;24.30;32.60
45343;DHT22;31077;50.872;4.352;2023-02-14T09:11:43;24.20;32.60
45343;DHT22;31077;50.872;4.352;2023-02-14T09:14:09;24.20;32.60
45343;DHT22;31077;50.872;4.352;2023-02-14T09:16:35;24.20;32.60
45343;DHT22;31077;50.872;4.352;2023-02-14T09:19:01;22.90;31.90
45343;DHT22;31077;50.872;4.352;2023-02-14T09:21:27;24.20;32.70
45343;DHT22;31077;50.872;4.352;2023-02-14T09:23:53;24.30;32.80
45343;DHT22;31077;50.872;4.352;2023-02-14T09:26:19;24.20;32.70
45343;DHT22;31077;50.872;4.352;2023-02-14T09:28:45;24.20;32.70
45343;DHT22;31077;50.872;4.352;2023-02-14T09:31:14;24.30;32.90
45343;DHT22;31077;50.872;4.352;2023-02-14T09:33:40;24.20;32.80
45343;DHT22;31077;50.872;4.352;2023-02-14T09:36:06;24.20;32.80
45343;DHT22;31077;50.872;4.352;2023-02-14T09:38:38;24.30;32.80
45343;DHT22;31077;50.872;4.352;2023-02-14T09:41:09;24.20;32.80
45343;DHT22;31077;50.872;4.352;2023-02-14T09:44:05;24.20;32.80
45343;DHT22;31077;50.872;4.352;2023-02-14T09:46:39;24.20;32.80
45343;DHT22;31077;50.872;4.352;2023-02-14T09:49:12;24.20;32.80
45343;DHT22;31077;50.872;4.352;2023-02-14T09:51:45;24.30;32.90
45343;DHT22;31077;50.872;4.352;2023-02-14T09:54:15;24.20;32.80
45343;DHT22;31077;50.872;4.352;2023-02-14T09:56:49;24.20;32.80
45343;DHT22;31077;50.872;4.352;2023-02-14T09:59:36;24.20;32.90
45343;DHT22;31077;50.872;4.352;2023-02-14T10:07:34;24.30;33.00
45343;DHT22;31077;50.872;4.352;2023-02-14T10:12:50;24.30;33.00
45343;DHT22;31077;50.872;4.352;2023-02-14T10:15:20;24.20;33.30
45343;DHT22;31077;50.872;4.352;2023-02-14T10:18:18;24.20;34.10
45343;DHT22;31077;50.872;4.352;2023-02-14T10:20:56;24.20;34.70
45343;DHT22;31077;50.872;4.352;2023-02-14T10:23:44;24.20;34.80
45343;DHT22;31077;50.872;4.352;2023-02-14T10:26:35;24.20;34.80
45343;DHT22;31077;50.872;4.352;2023-02-14T10:29:05;24.20;35.00
45343;DHT22;31077;50.872;4.352;2023-02-14T10:51:18;24.20;34.20
45343;DHT22;31077;50.872;4.352;2023-02-14T10:56:27;24.20;34.50
45343;DHT22;31077;50.872;4.352;2023-02-14T10:58:57;24.20;34.60
45343;DHT22;31077;50.872;4.352;2023-02-14T11:01:24;24.20;34.60
45343;DHT22;31077;50.872;4.352;2023-02-14T11:03:58;24.20;34.60
45343;DHT22;31077;50.872;4.352;2023-02-14T11:06:33;24.10;34.50
45343;DHT22;31077;50.872;4.352;2023-02-14T11:08:59;24.20;34.80
45343;DHT22;31077;50.872;4.352;2023-02-14T11:14:25;24.20;34.90
45343;DHT22;31077;50.872;4.352;2023-02-14T11:16:52;24.20;34.80
45343;DHT22;31077;50.872;4.352;2023-02-14T11:21:47;24.30;34.90
45343;DHT22;31077;50.872;4.352;2023-02-14T11:24:30;24.20;34.80
45343;DHT22;31077;50.872;4.352;2023-02-14T11:27:22;24.20;34.80
45343;DHT22;31077;50.872;4.352;2023-02-14T11:29:48;24.40;34.90
45343;DHT22;31077;50.872;4.352;2023-02-14T11:32:21;24.30;34.90
45343;DHT22;31077;50.872;4.352;2023-02-14T11:34:54;24.20;34.90
45343;DHT22;31077;50.872;4.352;2023-02-14T11:39:52;24.30;35.00
45343;DHT22;31077;50.872;4.352;2023-02-14T11:42:42;24.30;35.00
45343;DHT22;31077;50.872;4.352;2023-02-14T11:45:34;24.30;35.50
45343;DHT22;31077;50.872;4.352;2023-02-14T11:48:30;24.30;35.40
45343;DHT22;31077;50.872;4.352;2023-02-14T11:51:10;24.30;35.70
45343;DHT22;31077;50.872;4.352;2023-02-14T11:53:47;24.30;35.50
45343;DHT22;31077;50.872;4.352;2023-02-14T11:56:14;24.30;35.50
45343;DHT22;31077;50.872;4.352;2023-02-14T11:58:58;24.30;35.50
45343;DHT22;31077;50.872;4.352;2023-02-14T12:01:31;24.30;35.60
45343;DHT22;31077;50.872;4.352;2023-02-14T12:04:06;24.50;35.50
45343;DHT22;31077;50.872;4.352;2023-02-14T12:06:37;24.40;35.60
45343;DHT22;31077;50.872;4.352;2023-02-14T12:14:26;24.30;35.70
45343;DHT22;31077;50.872;4.352;2023-02-14T12:17:33;24.30;35.70
45343;DHT22;31077;50.872;4.352;2023-02-14T12:20:16;24.40;35.90
45343;DHT22;31077;50.872;4.352;2023-02-14T12:22:50;24.40;35.70
45343;DHT22;31077;50.872;4.352;2023-02-14T12:25:23;24.40;35.70
45343;DHT22;31077;50.872;4.352;2023-02-14T12:28:05;24.40;35.70
45343;DHT22;31077;50.872;4.352;2023-02-14T12:30:34;24.40;35.70
45343;DHT22;31077;50.872;4.352;2023-02-14T12:33:00;24.40;36.30
45343;DHT22;31077;50.872;4.352;2023-02-14T12:35:51;24.40;35.70
45343;DHT22;31077;50.872;4.352;2023-02-14T12:41:06;24.40;35.80
45343;DHT22;31077;50.872;4.352;2023-02-14T12:43:47;24.40;35.60
45343;DHT22;31077;50.872;4.352;2023-02-14T12:49:25;24.50;35.50
45343;DHT22;31077;50.872;4.352;2023-02-14T12:57:48;24.50;35.90
45343;DHT22;31077;50.872;4.352;2023-02-14T13:03:11;24.50;35.70
45343;DHT22;31077;50.872;4.352;2023-02-14T13:11:42;24.60;35.70
45343;DHT22;31077;50.872;4.352;2023-02-14T13:17:08;24.60;35.60
45343;DHT22;31077;50.872;4.352;2023-02-14T13:19:48;24.50;35.40
45343;DHT22;31077;50.872;4.352;2023-02-14T13:22:20;24.50;35.30
45343;DHT22;31077;50.872;4.352;2023-02-14T13:24:49;24.60;35.60
45343;DHT22;31077;50.872;4.352;2023-02-14T13:27:21;24.60;35.60
45343;DHT22;31077;50.872;4.352;2023-02-14T13:29:51;24.60;35.60
45343;DHT22;31077;50.872;4.352;2023-02-14T13:32:24;24.70;35.70
45343;DHT22;31077;50.872;4.352;2023-02-14T13:34:52;23.50;35.10
45343;DHT22;31077;50.872;4.352;2023-02-14T13:37:21;24.80;35.90
45343;DHT22;31077;50.872;4.352;2023-02-14T13:39:54;24.80;35.90
45343;DHT22;31077;50.872;4.352;2023-02-14T13:48:20;24.90;35.70
45343;DHT22;31077;50.872;4.352;2023-02-14T13:51:03;25.10;35.80
45343;DHT22;31077;50.872;4.352;2023-02-14T13:53:38;24.50;35.50
45343;DHT22;31077;50.872;4.352;2023-02-14T13:59:00;25.10;35.80
45343;DHT22;31077;50.872;4.352;2023-02-14T14:01:48;25.20;35.90
45343;DHT22;31077;50.872;4.352;2023-02-14T14:19:58;25.30;35.90
45343;DHT22;31077;50.872;4.352;2023-02-14T14:22:26;25.30;36.00
45343;DHT22;31077;50.872;4.352;2023-02-14T14:25:05;25.40;36.10
45343;DHT22;31077;50.872;4.352;2023-02-14T14:27:46;25.30;36.10
45343;DHT22;31077;50.872;4.352;2023-02-14T14:30:26;25.30;36.10
45343;DHT22;31077;50.872;4.352;2023-02-14T14:32:54;25.40;36.20
45343;DHT22;31077;50.872;4.352;2023-02-14T14:35:22;25.40;36.20
45343;DHT22;31077;50.872;4.352;2023-02-14T14:37:54;25.40;36.20
45343;DHT22;31077;50.872;4.352;2023-02-14T14:40:32;25.40;36.10
45343;DHT22;31077;50.872;4.352;2023-02-14T14:43:10;25.40;36.10
45343;DHT22;31077;50.872;4.352;2023-02-14T14:45:36;24.60;35.60
45343;DHT22;31077;50.872;4.352;2023-02-14T14:48:11;25.50;36.00
45343;DHT22;31077;50.872;4.352;2023-02-14T14:50:43;25.50;36.10
45343;DHT22;31077;50.872;4.352;2023-02-14T14:53:23;25.50;36.00
45343;DHT22;31077;50.872;4.352;2023-02-14T14:55:51;25.50;36.00
45343;DHT22;31077;50.872;4.352;2023-02-14T14:58:47;24.40;35.30
45343;DHT22;31077;50.872;4.352;2023-02-14T15:01:36;25.50;36.00
45343;DHT22;31077;50.872;4.352;2023-02-14T15:04:32;25.50;35.90
45343;DHT22;31077;50.872;4.352;2023-02-14T15:07:31;25.50;35.90
45343;DHT22;31077;50.872;4.352;2023-02-14T15:09:57;25.50;35.90
45343;DHT22;31077;50.872;4.352;2023-02-14T15:12:23;25.60;35.90
45343;DHT22;31077;50.872;4.352;2023-02-14T15:15:14;25.60;35.80
45343;DHT22;31077;50.872;4.352;2023-02-14T15:17:41;25.50;35.80
45343;DHT22;31077;50.872;4.352;2023-02-14T15:20:13;25.50;35.80
45343;DHT22;31077;50.872;4.352;2023-02-14T15:22:46;25.70;35.80
45343;DHT22;31077;50.872;4.352;2023-02-14T15:27:43;25.60;35.80
45343;DHT22;31077;50.872;4.352;2023-02-14T15:32:45;25.70;35.80
45343;DHT22;31077;50.872;4.352;2023-02-14T15:35:14;25.60;35.70
45343;DHT22;31077;50.872;4.352;2023-02-14T15:37:41;25.10;35.30
45343;DHT22;31077;50.872;4.352;2023-02-14T15:40:24;25.50;35.60
45343;DHT22;31077;50.872;4.352;2023-02-14T15:42:51;25.50;35.60
45343;DHT22;31077;50.872;4.352;2023-02-14T15:47:55;25.50;35.70
45343;DHT22;31077;50.872;4.352;2023-02-14T15:50:43;25.50;35.70
45343;DHT22;31077;50.872;4.352;2023-02-14T15:53:17;25.50;35.60
45343;DHT22;31077;50.872;4.352;2023-02-14T15:55:48;25.60;35.70
45343;DHT22;31077;50.872;4.352;2023-02-14T15:58:18;25.50;35.60
45343;DHT22;31077;50.872;4.352;2023-02-14T16:00:45;24.40;35.00
45343;DHT22;31077;50.872;4.352;2023-02-14T16:03:24;25.50;35.70
45343;DHT22;31077;50.872;4.352;2023-02-14T16:05:51;25.60;35.80
45343;DHT22;31077;50.872;4.352;2023-02-14T16:08:39;25.50;35.60
45343;DHT22;31077;50.872;4.352;2023-02-14T16:11:29;25.50;35.50
45343;DHT22;31077;50.872;4.352;2023-02-14T16:13:56;25.50;35.50
45343;DHT22;31077;50.872;4.352;2023-02-14T16:16:22;25.50;35.50
45343;DHT22;31077;50.872;4.352;2023-02-14T16:18:50;25.50;35.30
45343;DHT22;31077;50.872;4.352;2023-02-14T16:21:25;25.50;35.40
45343;DHT22;31077;50.872;4.352;2023-02-14T16:26:44;25.50;35.40
45343;DHT22;31077;50.872;4.352;2023-02-14T16:29:15;25.30;35.30
45343;DHT22;31077;50.872;4.352;2023-02-14T16:31:49;25.40;35.30
45343;DHT22;31077;50.872;4.352;2023-02-14T16:34:16;25.30;35.30
45343;DHT22;31077;50.872;4.352;2023-02-14T16:36:42;25.30;35.20
45343;DHT22;31077;50.872;4.352;2023-02-14T16:39:17;25.30;35.30
45343;DHT22;31077;50.872;4.352;2023-02-14T16:41:45;25.20;35.40
45343;DHT22;31077;50.872;4.352;2023-02-14T16:44:15;25.20;35.60
45343;DHT22;31077;50.872;4.352;2023-02-14T16:46:42;25.20;35.90
45343;DHT22;31077;50.872;4.352;2023-02-14T16:49:12;25.30;36.10
45343;DHT22;31077;50.872;4.352;2023-02-14T16:51:42;25.10;36.10
45343;DHT22;31077;50.872;4.352;2023-02-14T16:54:17;25.10;36.30
45343;DHT22;31077;50.872;4.352;2023-02-14T16:59:18;25.10;36.30
45343;DHT22;31077;50.872;4.352;2023-02-14T17:01:43;25.00;36.20
45343;DHT22;31077;50.872;4.352;2023-02-14T17:04:09;25.00;36.20
45343;DHT22;31077;50.872;4.352;2023-02-14T17:06:36;25.00;36.30
45343;DHT22;31077;50.872;4.352;2023-02-14T17:09:05;25.00;36.40
45343;DHT22;31077;50.872;4.352;2023-02-14T17:11:37;25.80;37.10
45343;DHT22;31077;50.872;4.352;2023-02-14T17:14:05;24.90;37.10
45343;DHT22;31077;50.872;4.352;2023-02-14T17:16:31;24.90;36.60
45343;DHT22;31077;50.872;4.352;2023-02-14T17:18:58;24.90;36.60
45343;DHT22;31077;50.872;4.352;2023-02-14T17:21:25;24.70;36.60
45343;DHT22;31077;50.872;4.352;2023-02-14T17:23:51;25.00;36.70
45343;DHT22;31077;50.872;4.352;2023-02-14T17:26:17;24.90;36.70
45343;DHT22;31077;50.872;4.352;2023-02-14T17:28:44;24.90;36.80
45343;DHT22;31077;50.872;4.352;2023-02-14T17:31:11;24.90;36.80
45343;DHT22;31077;50.872;4.352;2023-02-14T17:33:37;24.90;36.90
45343;DHT22;31077;50.872;4.352;2023-02-14T17:36:11;24.90;36.80
45343;DHT22;31077;50.872;4.352;2023-02-14T17:38:38;24.90;36.90
45343;DHT22;31077;50.872;4.352;2023-02-14T17:41:15;26.80;38.10
45343;DHT22;31077;50.872;4.352;2023-02-14T17:43:41;24.80;36.80
45343;DHT22;31077;50.872;4.352;2023-02-14T17:46:08;24.90;36.90
45343;DHT22;31077;50.872;4.352;2023-02-14T17:48:33;24.90;36.90
45343;DHT22;31077;50.872;4.352;2023-02-14T17:51:07;24.80;36.70
45343;DHT22;31077;50.872;4.352;2023-02-14T17:53:33;24.90;36.60
45343;DHT22;31077;50.872;4.352;2023-02-14T17:56:07;24.90;36.50
45343;DHT22;31077;50.872;4.352;2023-02-14T17:58:34;25.00;36.70
45343;DHT22;31077;50.872;4.352;2023-02-14T18:01:08;25.00;36.60
45343;DHT22;31077;50.872;4.352;2023-02-14T18:03:34;24.90;36.60
45343;DHT22;31077;50.872;4.352;2023-02-14T18:06:01;26.20;37.40
45343;DHT22;31077;50.872;4.352;2023-02-14T18:08:28;24.90;36.50
45343;DHT22;31077;50.872;4.352;2023-02-14T18:10:55;24.90;36.50
45343;DHT22;31077;50.872;4.352;2023-02-14T18:13:23;24.90;36.50
45343;DHT22;31077;50.872;4.352;2023-02-14T18:15:49;24.80;36.40
45343;DHT22;31077;50.872;4.352;2023-02-14T18:18:15;25.00;36.50